sensor_id;sensor_type;location;lat;lon;timestamp;temperature;humidity
24678;DHT22;12800;53.094;8.778;2023-05-10T00:01:55;17.60;69.30
24678;DHT22;12800;53.094;8.778;2023-05-10T00:04:21;17.60;69.00
24678;DHT22;12800;53.094;8.778;2023-05-10T00:06:47;17.60;68.50
24678;DHT22;12800;53.094;8.778;2023-05-10T00:09:13;17.50;67.70
24678;DHT22;12800;53.094;8.778;2023-05-10T00:11:39;17.50;67.00
24678;DHT22;12800;53.094;8.778;2023-05-10T00:14:04;17.50;64.90
24678;DHT22;12800;53.094;8.778;2023-05-10T00:16:30;17.50;63.90
24678;DHT22;12800;53.094;8.778;2023-05-10T00:18:55;17.50;63.70
24678;DHT22;12800;53.094;8.778;2023-05-10T00:21:21;17.50;62.70
24678;DHT22;12800;53.094;8.778;2023-05-10T00:23:47;17.40;62.10
24678;DHT22;12800;53.094;8.778;2023-05-10T00:26:12;17.40;61.80
24678;DHT22;12800;53.094;8.778;2023-05-10T00:28:38;17.40;61.40
24678;DHT22;12800;53.094;8.778;2023-05-10T00:31:03;17.40;61.50
24678;DHT22;12800;53.094;8.778;2023-05-10T00:33:29;17.40;61.50
24678;DHT22;12800;53.094;8.778;2023-05-10T00:35:55;17.40;61.10
24678;DHT22;12800;53.094;8.778;2023-05-10T00:38:20;17.40;60.50
24678;DHT22;12800;53.094;8.778;2023-05-10T00:40:46;17.40;60.60
24678;DHT22;12800;53.094;8.778;2023-05-10T00:43:12;17.40;60.00
24678;DHT22;12800;53.094;8.778;2023-05-10T00:45:40;17.40;60.00
24678;DHT22;12800;53.094;8.778;2023-05-10T00:48:05;17.40;59.90
24678;DHT22;12800;53.094;8.778;2023-05-10T00:50:32;17.40;59.70
24678;DHT22;12800;53.094;8.778;2023-05-10T00:52:59;17.40;59.70
24678;DHT22;12800;53.094;8.778;2023-05-10T00:55:25;17.30;58.60
24678;DHT22;12800;53.094;8.778;2023-05-10T00:57:52;17.30;58.20
24678;DHT22;12800;53.094;8.778;2023-05-10T01:00:18;17.30;58.20
24678;DHT22;12800;53.094;8.778;2023-05-10T01:02:45;17.30;57.70
24678;DHT22;12800;53.094;8.778;2023-05-10T01:05:12;17.30;57.50
24678;DHT22;12800;53.094;8.778;2023-05-10T01:07:38;17.30;57.30
24678;DHT22;12800;53.094;8.778;2023-05-10T01:10:04;17.30;56.80
24678;DHT22;12800;53.094;8.778;2023-05-10T01:12:30;17.30;56.90
24678;DHT22;12800;53.094;8.778;2023-05-10T01:14:56;17.30;56.70
24678;DHT22;12800;53.094;8.778;2023-05-10T01:17:22;17.30;56.50
24678;DHT22;12800;53.094;8.778;2023-05-10T01:19:49;17.20;56.60
24678;DHT22;12800;53.094;8.778;2023-05-10T01:36:08;17.20;55.90
24678;DHT22;12800;53.094;8.778;2023-05-10T01:44:01;17.20;55.50
24678;DHT22;12800;53.094;8.778;2023-05-10T01:46:35;17.20;55.50
24678;DHT22;12800;53.094;8.778;2023-05-10T01:49:03;17.10;55.40
24678;DHT22;12800;53.094;8.778;2023-05-10T01:51:47;17.10;55.30
24678;DHT22;12800;53.094;8.778;2023-05-10T01:54:15;17.10;55.20
24678;DHT22;12800;53.094;8.778;2023-05-10T01:56:44;17.10;55.40
24678;DHT22;12800;53.094;8.778;2023-05-10T01:59:14;17.10;55.40
24678;DHT22;12800;53.094;8.778;2023-05-10T02:01:41;17.10;55.40
24678;DHT22;12800;53.094;8.778;2023-05-10T02:04:08;17.10;55.40
24678;DHT22;12800;53.094;8.778;2023-05-10T02:06:35;17.10;55.50
24678;DHT22;12800;53.094;8.778;2023-05-10T02:09:02;17.00;55.60
24678;DHT22;12800;53.094;8.778;2023-05-10T02:11:29;17.00;55.90
24678;DHT22;12800;53.094;8.778;2023-05-10T02:13:57;17.00;56.10
24678;DHT22;12800;53.094;8.778;2023-05-10T02:16:25;17.00;56.40
24678;DHT22;12800;53.094;8.778;2023-05-10T02:18:52;17.00;56.80
24678;DHT22;12800;53.094;8.778;2023-05-10T02:21:20;16.90;57.50
24678;DHT22;12800;53.094;8.778;2023-05-10T02:23:48;16.90;57.70
24678;DHT22;12800;53.094;8.778;2023-05-10T02:26:15;16.90;57.60
24678;DHT22;12800;53.094;8.778;2023-05-10T02:28:42;16.80;58.30
24678;DHT22;12800;53.094;8.778;2023-05-10T02:31:08;16.80;58.10
24678;DHT22;12800;53.094;8.778;2023-05-10T02:33:37;16.80;58.10
24678;DHT22;12800;53.094;8.778;2023-05-10T02:36:03;16.80;58.00
24678;DHT22;12800;53.094;8.778;2023-05-10T02:38:31;16.80;58.10
24678;DHT22;12800;53.094;8.778;2023-05-10T02:40:59;16.80;58.10
24678;DHT22;12800;53.094;8.778;2023-05-10T02:43:25;16.80;58.30
24678;DHT22;12800;53.094;8.778;2023-05-10T02:45:51;16.70;58.10
24678;DHT22;12800;53.094;8.778;2023-05-10T02:48:17;16.70;58.30
24678;DHT22;12800;53.094;8.778;2023-05-10T02:50:47;16.70;58.40
24678;DHT22;12800;53.094;8.778;2023-05-10T02:53:21;16.60;58.60
24678;DHT22;12800;53.094;8.778;2023-05-10T02:55:51;16.60;58.90
24678;DHT22;12800;53.094;8.778;2023-05-10T02:58:17;16.60;59.50
24678;DHT22;12800;53.094;8.778;2023-05-10T03:00:45;16.60;59.60
24678;DHT22;12800;53.094;8.778;2023-05-10T03:03:11;16.60;60.70
24678;DHT22;12800;53.094;8.778;2023-05-10T03:05:37;16.60;60.20
24678;DHT22;12800;53.094;8.778;2023-05-10T03:08:02;16.50;60.30
24678;DHT22;12800;53.094;8.778;2023-05-10T03:10:30;16.50;60.50
24678;DHT22;12800;53.094;8.778;2023-05-10T03:16:18;16.40;60.10
24678;DHT22;12800;53.094;8.778;2023-05-10T03:19:06;16.40;60.20
24678;DHT22;12800;53.094;8.778;2023-05-10T03:21:40;16.30;60.40
24678;DHT22;12800;53.094;8.778;2023-05-10T03:24:08;16.30;60.80
24678;DHT22;12800;53.094;8.778;2023-05-10T03:26:37;16.30;60.90
24678;DHT22;12800;53.094;8.778;2023-05-10T03:29:05;16.30;61.20
24678;DHT22;12800;53.094;8.778;2023-05-10T03:31:32;16.30;61.50
24678;DHT22;12800;53.094;8.778;2023-05-10T03:33:57;16.20;60.70
24678;DHT22;12800;53.094;8.778;2023-05-10T03:36:23;16.20;61.20
24678;DHT22;12800;53.094;8.778;2023-05-10T03:38:49;16.20;61.70
24678;DHT22;12800;53.094;8.778;2023-05-10T03:41:14;16.20;62.20
24678;DHT22;12800;53.094;8.778;2023-05-10T03:43:40;16.20;62.80
24678;DHT22;12800;53.094;8.778;2023-05-10T03:46:06;16.10;62.70
24678;DHT22;12800;53.094;8.778;2023-05-10T03:48:32;16.10;62.70
24678;DHT22;12800;53.094;8.778;2023-05-10T03:50:58;16.10;62.80
24678;DHT22;12800;53.094;8.778;2023-05-10T03:53:23;16.10;62.70
24678;DHT22;12800;53.094;8.778;2023-05-10T03:55:49;16.10;63.20
24678;DHT22;12800;53.094;8.778;2023-05-10T03:58:15;16.10;63.60
24678;DHT22;12800;53.094;8.778;2023-05-10T04:00:40;16.00;63.60
24678;DHT22;12800;53.094;8.778;2023-05-10T04:03:11;16.00;64.10
24678;DHT22;12800;53.094;8.778;2023-05-10T04:05:37;16.00;64.40
24678;DHT22;12800;53.094;8.778;2023-05-10T04:08:03;15.90;64.70
24678;DHT22;12800;53.094;8.778;2023-05-10T04:10:29;15.90;64.20
24678;DHT22;12800;53.094;8.778;2023-05-10T04:12:55;15.90;64.30
24678;DHT22;12800;53.094;8.778;2023-05-10T04:15:20;15.80;64.20
24678;DHT22;12800;53.094;8.778;2023-05-10T04:17:46;15.80;64.60
24678;DHT22;12800;53.094;8.778;2023-05-10T04:20:12;15.80;65.30
24678;DHT22;12800;53.094;8.778;2023-05-10T04:22:38;15.80;65.30
24678;DHT22;12800;53.094;8.778;2023-05-10T04:25:04;15.80;65.50
24678;DHT22;12800;53.094;8.778;2023-05-10T04:27:30;15.80;65.60
24678;DHT22;12800;53.094;8.778;2023-05-10T04:29:56;15.80;66.60
24678;DHT22;12800;53.094;8.778;2023-05-10T04:32:22;15.80;65.50
24678;DHT22;12800;53.094;8.778;2023-05-10T04:34:47;15.70;65.00
24678;DHT22;12800;53.094;8.778;2023-05-10T04:37:13;15.70;65.00
24678;DHT22;12800;53.094;8.778;2023-05-10T04:39:39;15.70;65.50
24678;DHT22;12800;53.094;8.778;2023-05-10T04:42:04;15.70;66.40
24678;DHT22;12800;53.094;8.778;2023-05-10T04:44:34;15.70;67.20
24678;DHT22;12800;53.094;8.778;2023-05-10T04:46:59;15.70;67.50
24678;DHT22;12800;53.094;8.778;2023-05-10T04:49:25;15.60;67.20
24678;DHT22;12800;53.094;8.778;2023-05-10T04:51:50;15.60;67.30
24678;DHT22;12800;53.094;8.778;2023-05-10T04:54:16;15.60;67.70
24678;DHT22;12800;53.094;8.778;2023-05-10T04:56:42;15.50;68.00
24678;DHT22;12800;53.094;8.778;2023-05-10T04:59:07;15.50;68.20
24678;DHT22;12800;53.094;8.778;2023-05-10T05:01:33;15.40;68.80
24678;DHT22;12800;53.094;8.778;2023-05-10T05:03:59;15.40;70.20
24678;DHT22;12800;53.094;8.778;2023-05-10T05:06:25;15.40;70.80
24678;DHT22;12800;53.094;8.778;2023-05-10T05:08:51;15.40;70.20
24678;DHT22;12800;53.094;8.778;2023-05-10T05:11:17;15.40;70.20
24678;DHT22;12800;53.094;8.778;2023-05-10T05:13:43;15.40;70.70
24678;DHT22;12800;53.094;8.778;2023-05-10T05:16:08;15.40;71.20
24678;DHT22;12800;53.094;8.778;2023-05-10T05:18:34;15.40;71.30
24678;DHT22;12800;53.094;8.778;2023-05-10T05:21:00;15.40;72.50
24678;DHT22;12800;53.094;8.778;2023-05-10T05:23:26;15.30;71.80
24678;DHT22;12800;53.094;8.778;2023-05-10T05:25:52;15.30;72.00
24678;DHT22;12800;53.094;8.778;2023-05-10T05:28:19;15.20;72.00
24678;DHT22;12800;53.094;8.778;2023-05-10T05:30:45;15.20;73.30
24678;DHT22;12800;53.094;8.778;2023-05-10T05:33:10;15.20;72.70
24678;DHT22;12800;53.094;8.778;2023-05-10T05:35:36;15.20;73.20
24678;DHT22;12800;53.094;8.778;2023-05-10T05:38:02;15.20;73.50
24678;DHT22;12800;53.094;8.778;2023-05-10T05:40:28;15.20;73.80
24678;DHT22;12800;53.094;8.778;2023-05-10T05:42:53;15.20;73.90
24678;DHT22;12800;53.094;8.778;2023-05-10T05:45:19;15.10;74.10
24678;DHT22;12800;53.094;8.778;2023-05-10T05:47:44;15.10;74.40
24678;DHT22;12800;53.094;8.778;2023-05-10T05:50:10;15.10;74.90
24678;DHT22;12800;53.094;8.778;2023-05-10T05:52:36;15.10;75.30
24678;DHT22;12800;53.094;8.778;2023-05-10T05:55:01;15.00;75.60
24678;DHT22;12800;53.094;8.778;2023-05-10T05:57:28;15.00;75.90
24678;DHT22;12800;53.094;8.778;2023-05-10T05:59:53;15.10;76.50
24678;DHT22;12800;53.094;8.778;2023-05-10T06:02:19;15.10;76.60
24678;DHT22;12800;53.094;8.778;2023-05-10T06:04:44;15.10;77.00
24678;DHT22;12800;53.094;8.778;2023-05-10T06:07:10;15.00;77.20
24678;DHT22;12800;53.094;8.778;2023-05-10T06:09:35;15.00;77.50
24678;DHT22;12800;53.094;8.778;2023-05-10T06:12:01;15.00;77.40
24678;DHT22;12800;53.094;8.778;2023-05-10T06:14:27;15.00;77.80
24678;DHT22;12800;53.094;8.778;2023-05-10T06:16:52;15.10;78.00
24678;DHT22;12800;53.094;8.778;2023-05-10T06:19:18;15.10;78.10
24678;DHT22;12800;53.094;8.778;2023-05-10T06:21:44;15.00;78.10
24678;DHT22;12800;53.094;8.778;2023-05-10T06:24:09;15.10;78.50
24678;DHT22;12800;53.094;8.778;2023-05-10T06:26:36;15.00;78.70
24678;DHT22;12800;53.094;8.778;2023-05-10T06:29:01;15.00;78.70
24678;DHT22;12800;53.094;8.778;2023-05-10T06:31:27;15.00;79.00
24678;DHT22;12800;53.094;8.778;2023-05-10T06:33:52;14.90;79.20
24678;DHT22;12800;53.094;8.778;2023-05-10T06:36:18;14.90;79.50
24678;DHT22;12800;53.094;8.778;2023-05-10T06:38:44;14.90;79.80
24678;DHT22;12800;53.094;8.778;2023-05-10T06:41:09;14.90;80.20
24678;DHT22;12800;53.094;8.778;2023-05-10T06:43:35;14.90;80.40
24678;DHT22;12800;53.094;8.778;2023-05-10T06:46:02;14.90;81.50
24678;DHT22;12800;53.094;8.778;2023-05-10T06:48:27;15.00;80.60
24678;DHT22;12800;53.094;8.778;2023-05-10T06:50:53;15.00;80.80
24678;DHT22;12800;53.094;8.778;2023-05-10T06:53:19;15.00;80.80
24678;DHT22;12800;53.094;8.778;2023-05-10T06:55:44;15.00;81.10
24678;DHT22;12800;53.094;8.778;2023-05-10T06:58:10;15.00;81.40
24678;DHT22;12800;53.094;8.778;2023-05-10T07:00:36;15.00;81.60
24678;DHT22;12800;53.094;8.778;2023-05-10T07:03:05;15.10;81.90
24678;DHT22;12800;53.094;8.778;2023-05-10T07:05:31;15.10;82.30
24678;DHT22;12800;53.094;8.778;2023-05-10T07:07:57;15.10;83.10
24678;DHT22;12800;53.094;8.778;2023-05-10T07:10:22;15.20;82.60
24678;DHT22;12800;53.094;8.778;2023-05-10T07:12:48;15.20;82.90
24678;DHT22;12800;53.094;8.778;2023-05-10T07:15:14;15.30;83.50
24678;DHT22;12800;53.094;8.778;2023-05-10T07:17:39;15.30;83.00
24678;DHT22;12800;53.094;8.778;2023-05-10T07:20:05;15.30;83.30
24678;DHT22;12800;53.094;8.778;2023-05-10T07:22:31;15.40;83.40
24678;DHT22;12800;53.094;8.778;2023-05-10T07:24:57;15.40;83.60
24678;DHT22;12800;53.094;8.778;2023-05-10T07:27:22;15.50;83.90
24678;DHT22;12800;53.094;8.778;2023-05-10T07:29:48;15.60;84.00
24678;DHT22;12800;53.094;8.778;2023-05-10T07:32:14;15.60;84.10
24678;DHT22;12800;53.094;8.778;2023-05-10T07:34:39;15.70;84.10
24678;DHT22;12800;53.094;8.778;2023-05-10T07:37:05;15.70;83.90
24678;DHT22;12800;53.094;8.778;2023-05-10T07:39:31;15.70;84.10
24678;DHT22;12800;53.094;8.778;2023-05-10T07:41:57;15.80;84.20
24678;DHT22;12800;53.094;8.778;2023-05-10T07:44:23;15.80;84.50
24678;DHT22;12800;53.094;8.778;2023-05-10T07:46:48;15.80;84.70
24678;DHT22;12800;53.094;8.778;2023-05-10T07:49:14;15.90;84.90
24678;DHT22;12800;53.094;8.778;2023-05-10T07:51:40;15.90;85.00
24678;DHT22;12800;53.094;8.778;2023-05-10T07:54:05;16.00;85.20
24678;DHT22;12800;53.094;8.778;2023-05-10T07:56:32;16.10;85.30
24678;DHT22;12800;53.094;8.778;2023-05-10T07:58:59;16.10;85.10
24678;DHT22;12800;53.094;8.778;2023-05-10T08:01:25;16.20;86.00
24678;DHT22;12800;53.094;8.778;2023-05-10T08:03:51;16.30;84.90
24678;DHT22;12800;53.094;8.778;2023-05-10T08:06:20;16.30;84.80
24678;DHT22;12800;53.094;8.778;2023-05-10T08:08:47;16.40;85.10
24678;DHT22;12800;53.094;8.778;2023-05-10T08:11:17;16.40;84.30
24678;DHT22;12800;53.094;8.778;2023-05-10T08:13:44;16.50;84.30
24678;DHT22;12800;53.094;8.778;2023-05-10T08:16:10;16.50;84.00
24678;DHT22;12800;53.094;8.778;2023-05-10T08:18:36;16.60;84.20
24678;DHT22;12800;53.094;8.778;2023-05-10T08:21:01;16.70;84.30
24678;DHT22;12800;53.094;8.778;2023-05-10T08:23:27;16.80;84.40
24678;DHT22;12800;53.094;8.778;2023-05-10T08:25:53;16.90;84.30
24678;DHT22;12800;53.094;8.778;2023-05-10T08:28:18;17.00;83.80
24678;DHT22;12800;53.094;8.778;2023-05-10T08:30:44;17.00;83.30
24678;DHT22;12800;53.094;8.778;2023-05-10T08:33:10;17.10;83.00
24678;DHT22;12800;53.094;8.778;2023-05-10T08:35:35;17.10;82.80
24678;DHT22;12800;53.094;8.778;2023-05-10T08:38:01;17.10;82.70
24678;DHT22;12800;53.094;8.778;2023-05-10T08:40:27;17.10;82.70
24678;DHT22;12800;53.094;8.778;2023-05-10T08:43:01;17.10;82.50
24678;DHT22;12800;53.094;8.778;2023-05-10T08:45:32;17.10;82.60
24678;DHT22;12800;53.094;8.778;2023-05-10T08:47:59;17.10;82.50
24678;DHT22;12800;53.094;8.778;2023-05-10T08:50:26;17.00;82.50
24678;DHT22;12800;53.094;8.778;2023-05-10T08:52:55;17.00;82.70
24678;DHT22;12800;53.094;8.778;2023-05-10T08:55:23;17.00;83.00
24678;DHT22;12800;53.094;8.778;2023-05-10T08:57:49;17.10;83.00
24678;DHT22;12800;53.094;8.778;2023-05-10T09:00:16;17.20;82.60
24678;DHT22;12800;53.094;8.778;2023-05-10T09:02:43;17.40;82.20
24678;DHT22;12800;53.094;8.778;2023-05-10T09:05:12;17.50;81.60
24678;DHT22;12800;53.094;8.778;2023-05-10T09:07:37;17.50;80.70
24678;DHT22;12800;53.094;8.778;2023-05-10T09:10:04;17.60;80.00
24678;DHT22;12800;53.094;8.778;2023-05-10T09:12:30;17.60;79.60
24678;DHT22;12800;53.094;8.778;2023-05-10T09:14:57;17.60;79.00
24678;DHT22;12800;53.094;8.778;2023-05-10T09:17:25;17.60;78.90
24678;DHT22;12800;53.094;8.778;2023-05-10T09:20:00;17.60;78.60
24678;DHT22;12800;53.094;8.778;2023-05-10T09:22:27;17.60;78.70
24678;DHT22;12800;53.094;8.778;2023-05-10T09:25:08;17.70;78.70
24678;DHT22;12800;53.094;8.778;2023-05-10T09:27:35;17.70;78.90
24678;DHT22;12800;53.094;8.778;2023-05-10T09:30:02;17.70;78.50
24678;DHT22;12800;53.094;8.778;2023-05-10T09:32:48;17.80;78.60
24678;DHT22;12800;53.094;8.778;2023-05-10T09:35:15;17.80;78.40
24678;DHT22;12800;53.094;8.778;2023-05-10T09:37:44;17.80;78.60
24678;DHT22;12800;53.094;8.778;2023-05-10T09:40:25;17.80;78.50
24678;DHT22;12800;53.094;8.778;2023-05-10T09:43:02;17.80;78.20
24678;DHT22;12800;53.094;8.778;2023-05-10T09:45:30;17.80;77.80
24678;DHT22;12800;53.094;8.778;2023-05-10T09:47:57;17.80;77.70
24678;DHT22;12800;53.094;8.778;2023-05-10T09:50:23;17.80;77.70
24678;DHT22;12800;53.094;8.778;2023-05-10T09:52:58;17.80;77.80
24678;DHT22;12800;53.094;8.778;2023-05-10T09:55:26;17.80;77.80
24678;DHT22;12800;53.094;8.778;2023-05-10T09:58:03;17.80;78.10
24678;DHT22;12800;53.094;8.778;2023-05-10T10:00:34;17.90;78.40
24678;DHT22;12800;53.094;8.778;2023-05-10T10:03:01;18.00;77.90
24678;DHT22;12800;53.094;8.778;2023-05-10T10:05:35;18.00;77.80
24678;DHT22;12800;53.094;8.778;2023-05-10T10:08:03;18.10;77.50
24678;DHT22;12800;53.094;8.778;2023-05-10T10:10:29;18.10;77.50
24678;DHT22;12800;53.094;8.778;2023-05-10T10:12:56;18.10;77.00
24678;DHT22;12800;53.094;8.778;2023-05-10T10:15:22;18.00;76.60
24678;DHT22;12800;53.094;8.778;2023-05-10T10:17:49;17.90;76.30
24678;DHT22;12800;53.094;8.778;2023-05-10T10:20:15;17.90;76.60
24678;DHT22;12800;53.094;8.778;2023-05-10T10:22:41;17.80;77.00
24678;DHT22;12800;53.094;8.778;2023-05-10T10:25:10;17.70;77.50
24678;DHT22;12800;53.094;8.778;2023-05-10T10:27:54;17.70;77.70
24678;DHT22;12800;53.094;8.778;2023-05-10T10:30:41;17.80;78.00
24678;DHT22;12800;53.094;8.778;2023-05-10T10:35:49;18.00;77.60
24678;DHT22;12800;53.094;8.778;2023-05-10T10:38:16;18.10;77.80
24678;DHT22;12800;53.094;8.778;2023-05-10T10:40:42;18.20;77.10
24678;DHT22;12800;53.094;8.778;2023-05-10T10:43:27;18.40;77.30
24678;DHT22;12800;53.094;8.778;2023-05-10T10:46:15;18.50;76.80
24678;DHT22;12800;53.094;8.778;2023-05-10T10:48:43;18.70;76.10
24678;DHT22;12800;53.094;8.778;2023-05-10T10:51:13;18.70;75.70
24678;DHT22;12800;53.094;8.778;2023-05-10T10:53:40;18.90;75.70
24678;DHT22;12800;53.094;8.778;2023-05-10T10:56:11;19.00;74.80
24678;DHT22;12800;53.094;8.778;2023-05-10T10:58:39;19.00;75.00
24678;DHT22;12800;53.094;8.778;2023-05-10T11:01:17;19.00;73.80
24678;DHT22;12800;53.094;8.778;2023-05-10T11:06:36;19.00;74.00
24678;DHT22;12800;53.094;8.778;2023-05-10T11:09:08;19.10;74.00
24678;DHT22;12800;53.094;8.778;2023-05-10T11:11:35;19.10;73.50
24678;DHT22;12800;53.094;8.778;2023-05-10T11:14:07;19.10;73.30
24678;DHT22;12800;53.094;8.778;2023-05-10T11:16:43;19.00;73.30
24678;DHT22;12800;53.094;8.778;2023-05-10T11:19:10;19.00;73.40
24678;DHT22;12800;53.094;8.778;2023-05-10T11:24:15;19.00;73.20
24678;DHT22;12800;53.094;8.778;2023-05-10T11:26:42;19.00;73.10
24678;DHT22;12800;53.094;8.778;2023-05-10T11:29:07;19.10;73.20
24678;DHT22;12800;53.094;8.778;2023-05-10T11:31:34;19.20;73.10
24678;DHT22;12800;53.094;8.778;2023-05-10T11:34:00;19.20;72.80
24678;DHT22;12800;53.094;8.778;2023-05-10T11:36:29;19.30;72.90
24678;DHT22;12800;53.094;8.778;2023-05-10T11:38:57;19.40;72.60
24678;DHT22;12800;53.094;8.778;2023-05-10T11:41:24;19.50;72.30
24678;DHT22;12800;53.094;8.778;2023-05-10T11:43:51;19.50;72.00
24678;DHT22;12800;53.094;8.778;2023-05-10T11:46:22;19.40;71.80
24678;DHT22;12800;53.094;8.778;2023-05-10T11:48:52;19.20;72.60
24678;DHT22;12800;53.094;8.778;2023-05-10T11:51:24;19.00;73.70
24678;DHT22;12800;53.094;8.778;2023-05-10T11:53:53;18.80;74.50
24678;DHT22;12800;53.094;8.778;2023-05-10T11:56:19;18.60;75.20
24678;DHT22;12800;53.094;8.778;2023-05-10T11:58:53;18.40;76.10
24678;DHT22;12800;53.094;8.778;2023-05-10T12:01:19;18.10;76.30
24678;DHT22;12800;53.094;8.778;2023-05-10T12:03:45;18.00;77.00
24678;DHT22;12800;53.094;8.778;2023-05-10T12:06:10;17.90;77.90
24678;DHT22;12800;53.094;8.778;2023-05-10T12:08:36;17.80;78.60
24678;DHT22;12800;53.094;8.778;2023-05-10T12:11:07;17.80;79.00
24678;DHT22;12800;53.094;8.778;2023-05-10T12:13:38;17.80;79.50
24678;DHT22;12800;53.094;8.778;2023-05-10T12:16:18;17.80;80.00
24678;DHT22;12800;53.094;8.778;2023-05-10T12:18:45;18.00;80.90
24678;DHT22;12800;53.094;8.778;2023-05-10T12:21:13;18.20;80.90
24678;DHT22;12800;53.094;8.778;2023-05-10T12:23:40;18.30;80.60
24678;DHT22;12800;53.094;8.778;2023-05-10T12:26:09;18.30;81.10
24678;DHT22;12800;53.094;8.778;2023-05-10T12:28:35;18.30;80.00
24678;DHT22;12800;53.094;8.778;2023-05-10T12:31:01;18.20;79.70
24678;DHT22;12800;53.094;8.778;2023-05-10T12:33:38;18.20;79.70
24678;DHT22;12800;53.094;8.778;2023-05-10T12:36:05;18.30;79.80
24678;DHT22;12800;53.094;8.778;2023-05-10T12:41:08;18.30;79.70
24678;DHT22;12800;53.094;8.778;2023-05-10T12:43:36;18.30;79.70
24678;DHT22;12800;53.094;8.778;2023-05-10T12:46:09;18.20;79.30
24678;DHT22;12800;53.094;8.778;2023-05-10T12:48:36;18.10;79.10
24678;DHT22;12800;53.094;8.778;2023-05-10T12:51:03;18.00;78.50
24678;DHT22;12800;53.094;8.778;2023-05-10T12:53:29;17.90;79.00
24678;DHT22;12800;53.094;8.778;2023-05-10T12:55:55;18.00;80.70
24678;DHT22;12800;53.094;8.778;2023-05-10T12:58:21;18.10;79.90
24678;DHT22;12800;53.094;8.778;2023-05-10T13:00:47;18.40;79.80
24678;DHT22;12800;53.094;8.778;2023-05-10T13:03:12;18.60;79.50
24678;DHT22;12800;53.094;8.778;2023-05-10T13:05:38;18.70;79.10
24678;DHT22;12800;53.094;8.778;2023-05-10T13:08:04;18.80;78.70
24678;DHT22;12800;53.094;8.778;2023-05-10T13:10:30;18.80;78.30
24678;DHT22;12800;53.094;8.778;2023-05-10T13:12:59;18.90;77.90
24678;DHT22;12800;53.094;8.778;2023-05-10T13:15:25;18.80;77.30
24678;DHT22;12800;53.094;8.778;2023-05-10T13:17:52;18.60;77.10
24678;DHT22;12800;53.094;8.778;2023-05-10T13:20:18;18.50;77.00
24678;DHT22;12800;53.094;8.778;2023-05-10T13:22:44;18.40;77.10
24678;DHT22;12800;53.094;8.778;2023-05-10T13:25:10;18.30;77.30
24678;DHT22;12800;53.094;8.778;2023-05-10T13:27:37;18.30;77.30
24678;DHT22;12800;53.094;8.778;2023-05-10T13:30:03;18.20;77.60
24678;DHT22;12800;53.094;8.778;2023-05-10T13:32:29;18.30;77.50
24678;DHT22;12800;53.094;8.778;2023-05-10T13:34:55;18.30;77.40
24678;DHT22;12800;53.094;8.778;2023-05-10T13:37:21;18.30;76.90
24678;DHT22;12800;53.094;8.778;2023-05-10T13:39:47;18.30;77.00
24678;DHT22;12800;53.094;8.778;2023-05-10T13:42:13;18.40;77.00
24678;DHT22;12800;53.094;8.778;2023-05-10T13:44:39;18.40;76.60
24678;DHT22;12800;53.094;8.778;2023-05-10T13:47:05;18.40;76.20
24678;DHT22;12800;53.094;8.778;2023-05-10T13:49:30;18.30;76.00
24678;DHT22;12800;53.094;8.778;2023-05-10T13:51:56;18.30;75.90
24678;DHT22;12800;53.094;8.778;2023-05-10T13:54:23;18.30;75.90
24678;DHT22;12800;53.094;8.778;2023-05-10T13:56:48;18.30;75.60
24678;DHT22;12800;53.094;8.778;2023-05-10T13:59:14;18.20;75.70
24678;DHT22;12800;53.094;8.778;2023-05-10T14:01:40;18.10;75.70
24678;DHT22;12800;53.094;8.778;2023-05-10T14:04:06;18.10;75.70
24678;DHT22;12800;53.094;8.778;2023-05-10T14:06:38;18.10;76.10
24678;DHT22;12800;53.094;8.778;2023-05-10T14:09:03;18.20;76.10
24678;DHT22;12800;53.094;8.778;2023-05-10T14:11:29;18.30;75.80
24678;DHT22;12800;53.094;8.778;2023-05-10T14:13:55;18.30;75.60
24678;DHT22;12800;53.094;8.778;2023-05-10T14:16:20;18.30;75.50
24678;DHT22;12800;53.094;8.778;2023-05-10T14:18:46;18.40;75.60
24678;DHT22;12800;53.094;8.778;2023-05-10T14:21:12;18.40;75.70
24678;DHT22;12800;53.094;8.778;2023-05-10T14:23:38;18.50;76.00
24678;DHT22;12800;53.094;8.778;2023-05-10T14:26:04;18.60;76.20
24678;DHT22;12800;53.094;8.778;2023-05-10T14:28:30;18.80;75.80
24678;DHT22;12800;53.094;8.778;2023-05-10T14:30:55;19.10;75.60
24678;DHT22;12800;53.094;8.778;2023-05-10T14:33:21;19.30;74.90
24678;DHT22;12800;53.094;8.778;2023-05-10T14:35:47;19.40;74.30
24678;DHT22;12800;53.094;8.778;2023-05-10T14:38:13;19.50;74.40
24678;DHT22;12800;53.094;8.778;2023-05-10T14:40:39;19.60;73.70
24678;DHT22;12800;53.094;8.778;2023-05-10T14:43:05;19.60;73.60
24678;DHT22;12800;53.094;8.778;2023-05-10T14:45:31;19.70;73.00
24678;DHT22;12800;53.094;8.778;2023-05-10T14:47:57;19.70;73.00
24678;DHT22;12800;53.094;8.778;2023-05-10T14:50:23;19.90;72.50
24678;DHT22;12800;53.094;8.778;2023-05-10T14:52:49;19.90;72.00
24678;DHT22;12800;53.094;8.778;2023-05-10T14:55:15;19.80;71.20
24678;DHT22;12800;53.094;8.778;2023-05-10T14:57:40;19.70;71.40
24678;DHT22;12800;53.094;8.778;2023-05-10T15:00:07;19.60;71.20
24678;DHT22;12800;53.094;8.778;2023-05-10T15:02:33;19.50;71.40
24678;DHT22;12800;53.094;8.778;2023-05-10T15:04:58;19.40;71.40
24678;DHT22;12800;53.094;8.778;2023-05-10T15:07:24;19.30;71.30
24678;DHT22;12800;53.094;8.778;2023-05-10T15:09:50;19.00;71.40
24678;DHT22;12800;53.094;8.778;2023-05-10T15:12:17;18.90;71.90
24678;DHT22;12800;53.094;8.778;2023-05-10T15:14:43;18.80;72.10
24678;DHT22;12800;53.094;8.778;2023-05-10T15:17:09;18.70;72.60
24678;DHT22;12800;53.094;8.778;2023-05-10T15:19:35;18.70;73.00
24678;DHT22;12800;53.094;8.778;2023-05-10T15:22:01;18.60;73.00
24678;DHT22;12800;53.094;8.778;2023-05-10T15:24:28;18.40;73.30
24678;DHT22;12800;53.094;8.778;2023-05-10T15:26:53;18.30;73.80
24678;DHT22;12800;53.094;8.778;2023-05-10T15:29:19;18.20;74.10
24678;DHT22;12800;53.094;8.778;2023-05-10T15:31:49;18.10;74.60
24678;DHT22;12800;53.094;8.778;2023-05-10T15:34:15;18.00;74.70
24678;DHT22;12800;53.094;8.778;2023-05-10T15:36:41;17.90;75.20
24678;DHT22;12800;53.094;8.778;2023-05-10T15:39:06;17.90;75.20
24678;DHT22;12800;53.094;8.778;2023-05-10T15:41:32;17.90;75.30
24678;DHT22;12800;53.094;8.778;2023-05-10T15:43:58;18.20;76.00
24678;DHT22;12800;53.094;8.778;2023-05-10T15:46:25;18.70;74.70
24678;DHT22;12800;53.094;8.778;2023-05-10T15:48:51;19.00;73.30
24678;DHT22;12800;53.094;8.778;2023-05-10T15:51:17;19.10;72.20
24678;DHT22;12800;53.094;8.778;2023-05-10T15:53:44;19.00;72.00
24678;DHT22;12800;53.094;8.778;2023-05-10T15:56:09;19.00;71.90
24678;DHT22;12800;53.094;8.778;2023-05-10T15:58:36;18.90;71.90
24678;DHT22;12800;53.094;8.778;2023-05-10T16:01:02;18.90;71.90
24678;DHT22;12800;53.094;8.778;2023-05-10T16:03:30;18.80;72.10